createdAt,value
2018-05-09T00:00:41.283Z,19.90
2018-05-09T00:03:10.290Z,19.80
2018-05-09T00:05:39.317Z,19.80
2018-05-09T00:08:07.569Z,19.80
2018-05-09T00:10:35.835Z,19.80
2018-05-09T00:13:04.237Z,19.80
2018-05-09T00:15:32.460Z,19.80
2018-05-09T00:18:00.702Z,19.70
2018-05-09T00:20:28.990Z,19.70
2018-05-09T00:22:57.213Z,19.60
2018-05-09T00:25:26.227Z,19.60
2018-05-09T00:27:54.497Z,19.60
2018-05-09T00:30:22.762Z,19.60
2018-05-09T00:32:51.778Z,19.60
2018-05-09T00:35:20.021Z,19.60
2018-05-09T00:37:49.267Z,19.60
2018-05-09T00:40:17.505Z,19.50
2018-05-09T00:42:45.747Z,19.60
2018-05-09T00:45:13.995Z,19.60
2018-05-09T00:47:42.391Z,19.60
2018-05-09T00:50:10.633Z,19.50
2018-05-09T00:52:39.604Z,19.50
2018-05-09T00:55:08.645Z,19.50
2018-05-09T00:57:36.887Z,19.50
2018-05-09T01:00:05.136Z,19.50
2018-05-09T01:02:33.385Z,19.50
2018-05-09T01:05:01.644Z,19.50
2018-05-09T01:07:29.879Z,19.50
2018-05-09T01:09:58.164Z,19.50
2018-05-09T01:12:27.160Z,19.40
2018-05-09T01:14:55.440Z,19.40
2018-05-09T01:17:23.750Z,19.40
2018-05-09T01:19:51.962Z,19.40
2018-05-09T01:22:20.211Z,19.40
2018-05-09T01:24:48.439Z,19.40
2018-05-09T01:27:16.647Z,19.30
2018-05-09T01:29:44.881Z,19.30
2018-05-09T01:32:13.874Z,19.20
2018-05-09T01:34:42.966Z,19.20
2018-05-09T01:37:11.149Z,19.20
2018-05-09T01:39:40.169Z,19.10
2018-05-09T01:42:08.436Z,19.10
2018-05-09T01:44:36.703Z,19.10
2018-05-09T01:47:05.707Z,19.10
2018-05-09T01:49:34.065Z,19.10
2018-05-09T01:52:02.311Z,19.10
2018-05-09T01:54:30.784Z,19.10
2018-05-09T01:56:59.085Z,19.10
2018-05-09T01:59:27.298Z,19.10
2018-05-09T02:01:55.539Z,19.10
2018-05-09T02:04:23.781Z,19.10
2018-05-09T02:06:52.007Z,19.10
2018-05-09T02:09:20.408Z,19.00
2018-05-09T02:11:48.673Z,19.00
2018-05-09T02:14:16.923Z,19.00
2018-05-09T02:16:45.142Z,19.00
2018-05-09T02:19:13.389Z,19.00
2018-05-09T02:21:42.391Z,18.90
2018-05-09T02:24:11.422Z,18.90
2018-05-09T02:26:40.408Z,18.80
2018-05-09T02:29:08.643Z,18.80
2018-05-09T02:31:37.678Z,18.80
2018-05-09T02:34:05.926Z,18.80
2018-05-09T02:36:34.175Z,18.80
2018-05-09T02:39:02.506Z,18.80
2018-05-09T02:41:30.723Z,18.80
2018-05-09T02:43:58.949Z,18.80
2018-05-09T02:46:27.200Z,18.80
2018-05-09T02:48:55.449Z,18.70
2018-05-09T02:51:23.961Z,18.70
2018-05-09T02:53:52.975Z,18.70
2018-05-09T02:56:21.229Z,18.60
2018-05-09T02:58:49.472Z,18.70
2018-05-09T03:01:17.776Z,18.60
2018-05-09T03:03:46.089Z,18.60
2018-05-09T03:06:14.333Z,18.60
2018-05-09T03:08:43.338Z,18.50
2018-05-09T03:11:11.565Z,18.50
2018-05-09T03:13:39.833Z,18.50
2018-05-09T03:16:08.185Z,18.50
2018-05-09T03:18:36.437Z,18.50
2018-05-09T03:21:05.458Z,18.50
2018-05-09T03:23:33.681Z,18.50
2018-05-09T03:26:01.912Z,18.50
2018-05-09T03:28:30.133Z,18.40
2018-05-09T03:30:58.376Z,18.40
2018-05-09T03:33:26.590Z,18.40
2018-05-09T03:35:55.729Z,18.40
2018-05-09T03:38:23.952Z,18.40
2018-05-09T03:40:52.191Z,18.40
2018-05-09T03:43:20.427Z,18.40
2018-05-09T03:45:49.460Z,18.40
2018-05-09T03:48:17.831Z,18.40
2018-05-09T03:50:46.085Z,18.40
2018-05-09T03:53:14.352Z,18.40
2018-05-09T03:55:42.561Z,18.30
2018-05-09T03:58:10.830Z,18.30
2018-05-09T04:00:39.102Z,18.30
2018-05-09T04:03:19.025Z,18.30
2018-05-09T04:05:59.160Z,18.30
2018-05-09T04:08:40.067Z,18.40
2018-05-09T04:11:09.265Z,18.30
2018-05-09T04:13:37.561Z,18.30
2018-05-09T04:16:05.789Z,18.30
2018-05-09T04:18:34.074Z,18.40
2018-05-09T04:21:02.290Z,18.40
2018-05-09T04:23:30.555Z,18.40
2018-05-09T04:25:58.796Z,18.40
2018-05-09T04:28:27.046Z,18.40
2018-05-09T04:30:55.299Z,18.40
2018-05-09T04:33:23.555Z,18.40
2018-05-09T04:35:51.782Z,18.40
2018-05-09T04:38:20.092Z,18.40
2018-05-09T04:40:48.265Z,18.40
2018-05-09T04:43:16.503Z,18.40
2018-05-09T04:45:44.778Z,18.40
2018-05-09T04:48:13.017Z,18.40
2018-05-09T04:50:41.235Z,18.50
2018-05-09T04:53:09.498Z,18.50
2018-05-09T04:55:37.841Z,18.50
2018-05-09T04:58:06.754Z,18.50
2018-05-09T05:00:35.025Z,18.50
2018-05-09T05:03:03.294Z,18.50
2018-05-09T05:05:31.515Z,18.50
2018-05-09T05:07:59.740Z,18.60
2018-05-09T05:10:28.001Z,18.60
2018-05-09T05:12:57.119Z,18.60
2018-05-09T05:15:25.339Z,18.60
2018-05-09T05:17:53.672Z,18.60
2018-05-09T05:20:21.921Z,18.50
2018-05-09T05:22:50.986Z,18.60
2018-05-09T05:25:19.243Z,18.50
2018-05-09T05:27:47.547Z,18.60
2018-05-09T05:30:15.778Z,18.60
2018-05-09T05:32:44.050Z,18.70
2018-05-09T05:35:12.323Z,18.60
2018-05-09T05:37:40.571Z,18.60
2018-05-09T05:40:08.867Z,18.70
2018-05-09T05:42:37.122Z,18.70
2018-05-09T05:45:05.467Z,18.80
2018-05-09T05:47:33.593Z,18.80
2018-05-09T05:50:01.854Z,18.80
2018-05-09T05:52:30.238Z,18.80
2018-05-09T05:54:58.587Z,18.80
2018-05-09T05:57:26.877Z,18.90
2018-05-09T05:59:55.144Z,18.80
2018-05-09T06:02:23.350Z,18.80
2018-05-09T06:04:52.374Z,18.90
2018-05-09T06:07:20.604Z,18.80
2018-05-09T06:09:48.872Z,18.90
2018-05-09T06:12:17.127Z,18.90
2018-05-09T06:14:45.542Z,18.90
2018-05-09T06:17:13.860Z,19.00
2018-05-09T06:19:42.163Z,19.00
2018-05-09T06:22:10.461Z,19.00
2018-05-09T06:24:38.746Z,19.10
2018-05-09T06:27:07.027Z,19.10
2018-05-09T06:29:35.244Z,19.00
2018-05-09T06:32:03.492Z,19.10
2018-05-09T06:34:32.518Z,19.10
2018-05-09T06:37:00.773Z,19.10
2018-05-09T06:39:29.105Z,19.20
2018-05-09T06:41:57.664Z,19.20
2018-05-09T06:44:25.916Z,19.20
2018-05-09T06:46:54.949Z,19.20
2018-05-09T06:49:23.212Z,19.30
2018-05-09T06:51:51.516Z,19.30
2018-05-09T06:54:19.777Z,19.40
2018-05-09T06:56:48.100Z,19.40
2018-05-09T06:59:16.363Z,19.40
2018-05-09T07:01:44.618Z,19.40
2018-05-09T07:04:12.849Z,19.40
2018-05-09T07:06:44.170Z,19.40
2018-05-09T07:09:13.468Z,19.40
2018-05-09T07:11:41.738Z,19.50
2018-05-09T07:14:09.964Z,19.50
2018-05-09T07:16:38.189Z,19.50
2018-05-09T07:19:06.444Z,19.60
2018-05-09T07:21:34.813Z,19.60
2018-05-09T07:24:03.058Z,19.60
2018-05-09T07:26:31.320Z,19.70
2018-05-09T07:29:01.047Z,19.70
2018-05-09T07:31:29.279Z,19.70
2018-05-09T07:33:57.564Z,19.80
2018-05-09T07:36:25.830Z,19.80
2018-05-09T07:38:54.171Z,19.80
2018-05-09T07:41:22.424Z,19.80
2018-05-09T07:43:51.481Z,19.90
2018-05-09T07:46:19.745Z,19.90
2018-05-09T07:48:47.982Z,19.90
2018-05-09T07:51:16.308Z,19.90
2018-05-09T07:53:44.542Z,20.00
2018-05-09T07:56:12.753Z,20.00
2018-05-09T07:58:40.993Z,20.00
2018-05-09T08:01:09.235Z,20.00
2018-05-09T08:03:37.479Z,20.10
2018-05-09T08:06:05.796Z,20.10
2018-05-09T08:08:33.935Z,20.10
2018-05-09T08:11:02.262Z,20.20
2018-05-09T08:13:30.464Z,20.30
2018-05-09T08:15:58.713Z,20.30
2018-05-09T08:18:29.605Z,20.30
2018-05-09T08:20:57.857Z,20.30
2018-05-09T08:23:26.095Z,20.30
2018-05-09T08:25:55.280Z,20.40
2018-05-09T08:28:23.603Z,20.40
2018-05-09T08:30:51.859Z,20.50
2018-05-09T08:33:20.951Z,20.50
2018-05-09T08:35:49.177Z,20.50
2018-05-09T08:38:17.514Z,20.60
2018-05-09T08:40:45.868Z,20.60
2018-05-09T08:43:15.067Z,20.70
2018-05-09T08:45:43.360Z,20.70
2018-05-09T08:48:11.641Z,20.70
2018-05-09T08:50:39.853Z,20.80
2018-05-09T08:53:08.317Z,20.80
2018-05-09T08:55:36.546Z,20.90
2018-05-09T08:58:04.822Z,20.90
2018-05-09T09:00:33.056Z,21.00
2018-05-09T09:03:01.285Z,21.00
2018-05-09T09:05:30.352Z,21.10
2018-05-09T09:07:58.721Z,21.10
2018-05-09T09:10:26.980Z,21.10
2018-05-09T09:12:55.207Z,21.20
2018-05-09T09:15:23.481Z,21.20
2018-05-09T09:17:51.729Z,21.30
2018-05-09T09:20:19.948Z,21.40
2018-05-09T09:22:48.204Z,21.50
2018-05-09T09:25:16.560Z,21.50
2018-05-09T09:27:44.803Z,21.60
2018-05-09T09:30:13.064Z,21.60
2018-05-09T09:32:41.358Z,21.60
2018-05-09T09:35:09.575Z,21.70
2018-05-09T09:37:37.809Z,21.70
2018-05-09T09:40:06.057Z,21.70
2018-05-09T09:42:35.109Z,21.80
2018-05-09T09:45:03.339Z,21.80
2018-05-09T09:47:31.597Z,21.80
2018-05-09T09:50:00.647Z,21.90
2018-05-09T09:52:28.900Z,21.90
2018-05-09T09:54:57.131Z,22.00
2018-05-09T09:57:25.470Z,22.00
2018-05-09T09:59:53.693Z,22.10
2018-05-09T10:02:22.701Z,22.10
2018-05-09T10:04:50.928Z,22.10
2018-05-09T10:07:19.185Z,22.20
2018-05-09T10:09:47.433Z,22.20
2018-05-09T10:12:15.689Z,22.20
2018-05-09T10:14:44.677Z,22.30
2018-05-09T10:17:12.916Z,22.30
2018-05-09T10:19:41.155Z,22.40
2018-05-09T10:22:09.393Z,22.50
2018-05-09T10:24:37.753Z,22.60
2018-05-09T10:27:05.981Z,22.60
2018-05-09T10:29:35.141Z,22.60
2018-05-09T10:32:03.489Z,22.60
2018-05-09T10:34:31.710Z,22.60
2018-05-09T10:36:59.989Z,22.70
2018-05-09T10:39:28.689Z,22.70
2018-05-09T10:41:56.913Z,22.80
2018-05-09T10:44:25.200Z,22.90
2018-05-09T10:46:53.400Z,22.90
2018-05-09T10:49:21.655Z,22.90
2018-05-09T10:51:49.910Z,22.90
2018-05-09T10:54:18.143Z,23.00
2018-05-09T10:56:47.131Z,23.00
2018-05-09T10:59:16.146Z,23.10
2018-05-09T11:01:44.378Z,23.00
2018-05-09T11:04:12.624Z,23.10
2018-05-09T11:06:40.879Z,23.10
2018-05-09T11:09:09.127Z,23.20
2018-05-09T11:11:37.357Z,23.20
2018-05-09T11:14:06.540Z,23.30
2018-05-09T11:16:34.762Z,23.40
2018-05-09T11:19:02.998Z,23.40
2018-05-09T11:21:31.210Z,23.50
2018-05-09T11:23:59.484Z,23.50
2018-05-09T11:26:27.721Z,23.50
2018-05-09T11:28:55.981Z,23.50
2018-05-09T11:31:24.242Z,23.60
2018-05-09T11:33:53.257Z,23.60
2018-05-09T11:36:23.401Z,23.60
2018-05-09T11:38:51.647Z,23.70
2018-05-09T11:41:19.888Z,23.80
2018-05-09T11:43:48.192Z,23.80
2018-05-09T11:46:16.429Z,23.80
2018-05-09T11:48:44.685Z,23.80
2018-05-09T11:51:12.961Z,23.80
2018-05-09T11:53:41.248Z,23.90
2018-05-09T11:56:09.553Z,23.90
2018-05-09T11:58:37.779Z,24.00
2018-05-09T12:01:06.005Z,24.00
2018-05-09T12:03:34.300Z,24.00
2018-05-09T12:06:03.357Z,24.10
2018-05-09T12:08:31.597Z,24.00
2018-05-09T12:10:59.820Z,24.10
2018-05-09T12:13:28.062Z,24.10
2018-05-09T12:15:56.299Z,24.10
2018-05-09T12:18:25.319Z,24.10
2018-05-09T12:20:53.579Z,24.10
2018-05-09T12:23:22.559Z,24.20
2018-05-09T12:25:51.563Z,24.10
2018-05-09T12:28:20.609Z,24.20
2018-05-09T12:30:48.854Z,24.20
2018-05-09T12:33:17.077Z,24.30
2018-05-09T12:35:45.341Z,24.40
2018-05-09T12:38:13.572Z,24.40
2018-05-09T12:40:41.811Z,24.50
2018-05-09T12:43:10.036Z,24.50
2018-05-09T12:45:38.281Z,24.60
2018-05-09T12:48:07.266Z,24.70
2018-05-09T12:50:35.505Z,24.60
2018-05-09T12:53:04.515Z,24.70
2018-05-09T12:55:32.732Z,24.60
2018-05-09T12:58:01.182Z,24.70
2018-05-09T13:00:29.423Z,24.70
2018-05-09T13:02:57.671Z,24.70
2018-05-09T13:05:25.907Z,24.70
2018-05-09T13:07:54.133Z,24.70
2018-05-09T13:10:22.390Z,24.70
2018-05-09T13:12:50.635Z,24.70
2018-05-09T13:15:18.950Z,24.80
2018-05-09T13:17:47.226Z,24.80
2018-05-09T13:20:15.519Z,24.80
2018-05-09T13:22:43.745Z,24.90
2018-05-09T13:25:11.977Z,24.90
2018-05-09T13:27:40.211Z,24.90
2018-05-09T13:30:09.225Z,24.90
2018-05-09T13:32:37.573Z,24.90
2018-05-09T13:35:05.861Z,25.00
2018-05-09T13:37:34.023Z,25.00
2018-05-09T13:40:02.310Z,25.10
2018-05-09T13:42:30.577Z,25.10
2018-05-09T13:44:58.863Z,25.10
2018-05-09T13:47:27.884Z,25.10
2018-05-09T13:49:56.123Z,25.00
2018-05-09T13:52:24.426Z,25.20
2018-05-09T13:54:53.659Z,25.20
2018-05-09T13:57:22.881Z,25.20
2018-05-09T13:59:52.257Z,25.20
2018-05-09T14:02:20.517Z,25.30
2018-05-09T14:04:49.616Z,25.30
2018-05-09T14:07:18.632Z,25.40
2018-05-09T14:09:46.906Z,25.30
2018-05-09T14:12:15.876Z,25.40
2018-05-09T14:14:44.801Z,25.40
2018-05-09T14:17:13.041Z,25.40
2018-05-09T14:19:41.292Z,25.40
2018-05-09T14:22:10.336Z,25.40
2018-05-09T14:24:38.561Z,25.40
2018-05-09T14:27:07.579Z,25.40
2018-05-09T14:29:35.823Z,25.50
2018-05-09T14:32:04.198Z,25.50
2018-05-09T14:34:32.369Z,25.50
2018-05-09T14:37:00.683Z,25.60
2018-05-09T14:39:29.703Z,25.60
2018-05-09T14:41:57.935Z,25.60
2018-05-09T14:44:26.204Z,25.60
2018-05-09T14:46:54.430Z,25.60
2018-05-09T14:49:22.684Z,25.60
2018-05-09T14:51:50.937Z,25.60
2018-05-09T14:54:19.925Z,25.50
2018-05-09T14:56:48.981Z,25.40
2018-05-09T14:59:17.201Z,25.50
2018-05-09T15:01:46.217Z,25.50
2018-05-09T15:04:14.487Z,25.50
2018-05-09T15:06:42.728Z,25.50
2018-05-09T15:09:10.952Z,25.60
2018-05-09T15:11:39.191Z,25.60
2018-05-09T15:14:08.276Z,25.50
2018-05-09T15:16:37.207Z,25.50
2018-05-09T15:19:05.436Z,25.50
2018-05-09T15:21:33.685Z,25.50
2018-05-09T15:24:01.904Z,25.50
2018-05-09T15:26:30.175Z,25.60
2018-05-09T15:28:58.383Z,25.60
2018-05-09T15:31:26.624Z,25.60
2018-05-09T15:33:54.861Z,25.60
2018-05-09T15:36:23.131Z,25.60
2018-05-09T15:38:51.463Z,25.70
2018-05-09T15:41:19.617Z,25.80
2018-05-09T15:43:48.618Z,25.80
2018-05-09T15:46:16.833Z,25.80
2018-05-09T15:48:45.113Z,25.80
2018-05-09T15:51:13.331Z,25.80
2018-05-09T15:53:41.595Z,25.90
2018-05-09T15:56:09.873Z,25.90
2018-05-09T15:58:38.086Z,25.80
2018-05-09T16:01:06.307Z,25.80
2018-05-09T16:03:34.576Z,25.80
2018-05-09T16:06:02.792Z,25.80
2018-05-09T16:08:31.067Z,25.80
2018-05-09T16:10:59.283Z,25.90
2018-05-09T16:13:27.546Z,25.80
2018-05-09T16:15:55.809Z,25.80
2018-05-09T16:18:24.044Z,25.80
2018-05-09T16:20:53.525Z,25.70
2018-05-09T16:23:21.731Z,25.70
2018-05-09T16:25:49.980Z,25.70
2018-05-09T16:28:18.198Z,25.80
2018-05-09T16:30:46.455Z,25.90
2018-05-09T16:33:14.705Z,25.90
2018-05-09T16:35:43.696Z,25.90
2018-05-09T16:38:11.986Z,25.90
2018-05-09T16:40:40.999Z,26.00
2018-05-09T16:43:09.237Z,25.90
2018-05-09T16:45:38.268Z,26.00
2018-05-09T16:48:06.520Z,26.00
2018-05-09T16:50:34.768Z,26.00
2018-05-09T16:53:03.166Z,26.10
2018-05-09T16:55:31.403Z,26.10
2018-05-09T16:57:59.646Z,26.10
2018-05-09T17:00:27.867Z,26.10
2018-05-09T17:02:56.100Z,26.10
2018-05-09T17:05:24.441Z,26.10
2018-05-09T17:07:52.605Z,26.10
2018-05-09T17:10:20.938Z,26.20
2018-05-09T17:12:49.189Z,26.20
2018-05-09T17:15:17.429Z,26.30
2018-05-09T17:17:45.686Z,26.50
2018-05-09T17:20:13.909Z,26.60
2018-05-09T17:22:42.927Z,26.40
2018-05-09T17:25:11.201Z,26.40
2018-05-09T17:27:39.437Z,26.30
2018-05-09T17:30:07.723Z,26.30
2018-05-09T17:32:35.921Z,26.40
2018-05-09T17:35:04.183Z,26.60
2018-05-09T17:37:32.495Z,27.00
2018-05-09T17:40:00.711Z,27.20
2018-05-09T17:42:29.061Z,27.00
2018-05-09T17:44:57.199Z,26.70
2018-05-09T17:47:25.439Z,26.60
2018-05-09T17:49:53.691Z,26.60
2018-05-09T17:52:21.940Z,26.60
2018-05-09T17:54:50.229Z,26.50
2018-05-09T17:57:18.448Z,26.30
2018-05-09T17:59:46.755Z,26.10
2018-05-09T18:02:15.842Z,25.80
2018-05-09T18:04:44.000Z,25.70
2018-05-09T18:07:13.032Z,25.50
2018-05-09T18:09:41.291Z,25.40
2018-05-09T18:12:10.291Z,25.40
2018-05-09T18:14:38.618Z,25.30
2018-05-09T18:17:06.772Z,25.30
2018-05-09T18:19:35.016Z,25.30
2018-05-09T18:22:03.329Z,25.20
2018-05-09T18:24:31.554Z,25.20
2018-05-09T18:27:00.561Z,25.00
2018-05-09T18:29:28.815Z,25.00
2018-05-09T18:31:57.081Z,24.90
2018-05-09T18:34:25.330Z,24.80
2018-05-09T18:36:53.731Z,24.70
2018-05-09T18:39:21.948Z,24.50
2018-05-09T18:41:50.183Z,24.30
2018-05-09T18:44:18.495Z,24.20
2018-05-09T18:46:46.755Z,24.30
2018-05-09T18:49:15.754Z,24.10
2018-05-09T18:51:44.760Z,24.00
2018-05-09T18:54:13.018Z,24.00
2018-05-09T18:56:41.235Z,24.00
2018-05-09T18:59:09.468Z,24.00
2018-05-09T19:01:37.722Z,23.90
2018-05-09T19:04:06.011Z,23.80
2018-05-09T19:06:34.264Z,23.70
2018-05-09T19:09:02.488Z,23.70
2018-05-09T19:11:30.756Z,23.70
2018-05-09T19:13:58.989Z,23.70
2018-05-09T19:16:27.254Z,23.70
2018-05-09T19:18:56.212Z,23.50
2018-05-09T19:21:25.220Z,23.30
2018-05-09T19:23:53.440Z,23.20
2018-05-09T19:26:21.725Z,23.30
2018-05-09T19:28:49.998Z,23.30
2018-05-09T19:31:18.218Z,23.30
2018-05-09T19:33:46.470Z,23.20
2018-05-09T19:36:14.731Z,23.30
2018-05-09T19:38:43.083Z,23.20
2018-05-09T19:41:11.229Z,23.20
2018-05-09T19:43:39.450Z,23.10
2018-05-09T19:46:07.674Z,23.10
2018-05-09T19:48:35.921Z,23.00
2018-05-09T19:51:04.186Z,23.00
2018-05-09T19:53:32.544Z,22.90
2018-05-09T19:56:00.814Z,22.90
2018-05-09T19:58:29.057Z,22.70
2018-05-09T20:00:57.307Z,22.70
2018-05-09T20:03:25.627Z,22.70
2018-05-09T20:05:53.857Z,22.70
2018-05-09T20:08:22.101Z,22.70
2018-05-09T20:10:50.321Z,22.70
2018-05-09T20:13:19.325Z,22.50
2018-05-09T20:15:48.349Z,22.60
2018-05-09T20:18:16.577Z,22.50
2018-05-09T20:20:45.591Z,22.60
2018-05-09T20:23:14.603Z,22.50
2018-05-09T20:25:42.821Z,22.50
2018-05-09T20:28:11.070Z,22.40
2018-05-09T20:30:45.046Z,22.40
2018-05-09T20:33:14.107Z,22.40
2018-05-09T20:35:42.370Z,22.40
2018-05-09T20:38:10.610Z,22.40
2018-05-09T20:40:38.848Z,22.30
2018-05-09T20:43:07.104Z,22.30
2018-05-09T20:45:35.379Z,22.30
2018-05-09T20:48:03.608Z,22.20
2018-05-09T20:50:31.899Z,22.20
2018-05-09T20:53:00.117Z,22.20
2018-05-09T20:55:28.542Z,22.20
2018-05-09T20:57:56.820Z,22.10
2018-05-09T21:00:25.063Z,22.00
2018-05-09T21:02:53.845Z,22.00
2018-05-09T21:05:22.147Z,22.00
2018-05-09T21:07:56.745Z,22.10
2018-05-09T21:10:24.951Z,22.10
2018-05-09T21:12:53.228Z,22.20
2018-05-09T21:15:22.210Z,22.20
2018-05-09T21:17:51.202Z,22.10
2018-05-09T21:20:20.215Z,22.10
2018-05-09T21:22:48.438Z,22.00
2018-05-09T21:25:16.689Z,22.10
2018-05-09T21:27:44.920Z,22.10
2018-05-09T21:30:13.208Z,22.00
2018-05-09T21:32:42.216Z,22.00
2018-05-09T21:35:11.099Z,21.90
2018-05-09T21:37:39.353Z,21.90
2018-05-09T21:40:07.690Z,22.00
2018-05-09T21:42:35.918Z,22.00
2018-05-09T21:45:04.140Z,22.00
2018-05-09T21:47:32.377Z,22.00
2018-05-09T21:50:02.224Z,21.90
2018-05-09T21:52:30.480Z,21.80
2018-05-09T21:54:58.704Z,21.80
2018-05-09T21:57:26.979Z,21.80
2018-05-09T21:59:55.228Z,21.80
2018-05-09T22:02:23.473Z,21.80
2018-05-09T22:04:52.499Z,21.80
2018-05-09T22:07:20.741Z,21.80
2018-05-09T22:09:49.742Z,21.70
2018-05-09T22:12:17.985Z,21.70
2018-05-09T22:14:46.225Z,21.70
2018-05-09T22:17:14.444Z,21.70
2018-05-09T22:19:42.687Z,21.60
2018-05-09T22:22:10.910Z,21.60
2018-05-09T22:24:39.936Z,21.60
2018-05-09T22:27:08.143Z,21.60
2018-05-09T22:29:36.368Z,21.60
2018-05-09T22:32:04.611Z,21.50
2018-05-09T22:34:32.832Z,21.40
2018-05-09T22:37:01.079Z,21.30
2018-05-09T22:39:30.071Z,21.20
2018-05-09T22:41:59.062Z,21.30
2018-05-09T22:44:27.298Z,21.20
2018-05-09T22:46:55.553Z,21.20
2018-05-09T22:49:23.776Z,21.30
2018-05-09T22:51:52.021Z,21.30
2018-05-09T22:54:20.268Z,21.20
2018-05-09T22:56:48.510Z,21.30
2018-05-09T22:59:16.724Z,21.30
2018-05-09T23:01:44.965Z,21.30
2018-05-09T23:04:13.190Z,21.30
2018-05-09T23:06:41.426Z,21.20
2018-05-09T23:09:09.698Z,21.10
2018-05-09T23:11:38.687Z,21.10
2018-05-09T23:14:07.699Z,21.00
2018-05-09T23:16:35.962Z,21.00
2018-05-09T23:19:04.976Z,21.20
2018-05-09T23:21:33.220Z,21.10
2018-05-09T23:24:01.463Z,21.20
2018-05-09T23:26:29.722Z,21.20
2018-05-09T23:28:57.959Z,21.20
2018-05-09T23:31:26.983Z,21.20
2018-05-09T23:33:55.228Z,21.10
2018-05-09T23:36:24.261Z,20.90
2018-05-09T23:38:52.469Z,20.90
2018-05-09T23:41:20.706Z,20.90
2018-05-09T23:43:48.932Z,20.90
2018-05-09T23:46:17.164Z,20.80
2018-05-09T23:48:45.395Z,20.70
2018-05-09T23:51:13.638Z,20.80
2018-05-09T23:53:41.889Z,20.80
2018-05-09T23:56:10.141Z,20.90
2018-05-09T23:58:39.131Z,20.90
